Florence, Colorado
Current Conditions -  °F | °C
As of 4:15 AM on Sunday 23 Nov 2014 (Local Time) from K1V6 Reporting Station
Overcast Overcast  
Wind Chill: 38°   Ceiling: 7500
Heat Index: 45°   Visibility: 10mi
Dew Point: 27°   Wind: 14mph
Humidity: 49%   Direction: 280°W
Pressure: 29.62"   Gusts: NA
Location:  38.39°N, 105.12°W
Report Text: K1V6 231115Z AUTO 28012KT 10SM OVC075 07/M03 A2962 RMK AO2
Loading
Personal Weather Stations






























Interactive Weather Map New forecast layout! Learn more

10-Day Weather Forecast

Advertisements
Track Severe Weather on mobile